sensor_id;sensor_type;location;lat;lon;timestamp;P1;durP1;ratioP1;P2;durP2;ratioP2
6029;SDS011;3043;42.682;23.376;2022-11-20T00:01:35;11.37;;;7.70;;
6029;SDS011;3043;42.682;23.376;2022-11-20T00:04:00;12.43;;;8.33;;
6029;SDS011;3043;42.682;23.376;2022-11-20T00:06:26;12.03;;;7.77;;
6029;SDS011;3043;42.682;23.376;2022-11-20T00:08:56;14.30;;;9.03;;
6029;SDS011;3043;42.682;23.376;2022-11-20T00:11:23;12.63;;;7.80;;
6029;SDS011;3043;42.682;23.376;2022-11-20T00:13:51;15.10;;;7.70;;
6029;SDS011;3043;42.682;23.376;2022-11-20T00:16:19;15.70;;;8.63;;
6029;SDS011;3043;42.682;23.376;2022-11-20T00:18:48;12.37;;;7.77;;
6029;SDS011;3043;42.682;23.376;2022-11-20T00:21:18;13.80;;;8.17;;
6029;SDS011;3043;42.682;23.376;2022-11-20T00:23:46;14.60;;;8.13;;
6029;SDS011;3043;42.682;23.376;2022-11-20T00:26:12;16.70;;;8.53;;
6029;SDS011;3043;42.682;23.376;2022-11-20T00:28:39;15.33;;;8.97;;
6029;SDS011;3043;42.682;23.376;2022-11-20T00:31:06;10.83;;;7.10;;
6029;SDS011;3043;42.682;23.376;2022-11-20T00:33:34;14.77;;;7.80;;
6029;SDS011;3043;42.682;23.376;2022-11-20T00:36:01;14.13;;;7.03;;
6029;SDS011;3043;42.682;23.376;2022-11-20T00:38:27;12.80;;;7.20;;
6029;SDS011;3043;42.682;23.376;2022-11-20T00:40:59;12.17;;;7.17;;
6029;SDS011;3043;42.682;23.376;2022-11-20T00:43:32;13.47;;;7.47;;
6029;SDS011;3043;42.682;23.376;2022-11-20T00:48:26;12.13;;;4.53;;
6029;SDS011;3043;42.682;23.376;2022-11-20T00:50:52;10.43;;;4.60;;
6029;SDS011;3043;42.682;23.376;2022-11-20T00:53:18;7.83;;;4.63;;
6029;SDS011;3043;42.682;23.376;2022-11-20T00:55:54;10.00;;;4.57;;
6029;SDS011;3043;42.682;23.376;2022-11-20T00:58:21;9.13;;;4.60;;
6029;SDS011;3043;42.682;23.376;2022-11-20T01:00:46;9.50;;;5.10;;
6029;SDS011;3043;42.682;23.376;2022-11-20T01:03:12;7.00;;;3.47;;
6029;SDS011;3043;42.682;23.376;2022-11-20T01:05:38;7.27;;;3.20;;
6029;SDS011;3043;42.682;23.376;2022-11-20T01:08:03;8.30;;;4.43;;
6029;SDS011;3043;42.682;23.376;2022-11-20T01:10:29;6.23;;;3.50;;
6029;SDS011;3043;42.682;23.376;2022-11-20T01:12:54;7.63;;;3.97;;
6029;SDS011;3043;42.682;23.376;2022-11-20T01:15:40;7.13;;;3.80;;
6029;SDS011;3043;42.682;23.376;2022-11-20T01:18:05;9.43;;;4.20;;
6029;SDS011;3043;42.682;23.376;2022-11-20T01:20:34;8.83;;;4.73;;
6029;SDS011;3043;42.682;23.376;2022-11-20T01:23:00;8.10;;;3.97;;
6029;SDS011;3043;42.682;23.376;2022-11-20T01:25:26;4.83;;;2.90;;
6029;SDS011;3043;42.682;23.376;2022-11-20T01:27:52;6.87;;;3.10;;
6029;SDS011;3043;42.682;23.376;2022-11-20T01:30:17;6.00;;;2.50;;
6029;SDS011;3043;42.682;23.376;2022-11-20T01:32:42;8.40;;;4.30;;
6029;SDS011;3043;42.682;23.376;2022-11-20T01:35:08;6.33;;;3.37;;
6029;SDS011;3043;42.682;23.376;2022-11-20T01:37:34;7.83;;;2.80;;
6029;SDS011;3043;42.682;23.376;2022-11-20T01:40:00;9.50;;;3.90;;
6029;SDS011;3043;42.682;23.376;2022-11-20T01:42:25;8.47;;;3.97;;
6029;SDS011;3043;42.682;23.376;2022-11-20T01:48:12;8.10;;;4.63;;
6029;SDS011;3043;42.682;23.376;2022-11-20T01:50:38;10.33;;;5.03;;
6029;SDS011;3043;42.682;23.376;2022-11-20T01:53:05;8.47;;;3.73;;
6029;SDS011;3043;42.682;23.376;2022-11-20T01:55:38;4.30;;;1.80;;
6029;SDS011;3043;42.682;23.376;2022-11-20T01:58:06;6.83;;;2.20;;
6029;SDS011;3043;42.682;23.376;2022-11-20T02:00:33;5.60;;;2.10;;
6029;SDS011;3043;42.682;23.376;2022-11-20T02:02:59;4.20;;;1.90;;
6029;SDS011;3043;42.682;23.376;2022-11-20T02:05:31;5.20;;;2.07;;
6029;SDS011;3043;42.682;23.376;2022-11-20T02:08:07;8.10;;;2.93;;
6029;SDS011;3043;42.682;23.376;2022-11-20T02:10:33;7.27;;;2.97;;
6029;SDS011;3043;42.682;23.376;2022-11-20T02:12:59;5.57;;;2.87;;
6029;SDS011;3043;42.682;23.376;2022-11-20T02:15:43;7.73;;;2.30;;
6029;SDS011;3043;42.682;23.376;2022-11-20T02:18:09;8.27;;;2.80;;
6029;SDS011;3043;42.682;23.376;2022-11-20T02:20:36;8.57;;;2.90;;
6029;SDS011;3043;42.682;23.376;2022-11-20T02:25:32;4.20;;;2.30;;
6029;SDS011;3043;42.682;23.376;2022-11-20T02:28:00;5.90;;;2.83;;
6029;SDS011;3043;42.682;23.376;2022-11-20T02:30:25;7.87;;;3.53;;
6029;SDS011;3043;42.682;23.376;2022-11-20T02:32:51;7.90;;;3.33;;
6029;SDS011;3043;42.682;23.376;2022-11-20T02:37:42;5.73;;;2.83;;
6029;SDS011;3043;42.682;23.376;2022-11-20T02:40:09;8.27;;;2.93;;
6029;SDS011;3043;42.682;23.376;2022-11-20T02:42:36;10.43;;;3.70;;
6029;SDS011;3043;42.682;23.376;2022-11-20T02:45:02;8.60;;;3.63;;
6029;SDS011;3043;42.682;23.376;2022-11-20T02:47:29;6.03;;;2.83;;
6029;SDS011;3043;42.682;23.376;2022-11-20T02:49:55;5.80;;;1.80;;
6029;SDS011;3043;42.682;23.376;2022-11-20T02:52:20;5.30;;;2.23;;
6029;SDS011;3043;42.682;23.376;2022-11-20T02:54:45;3.50;;;2.27;;
6029;SDS011;3043;42.682;23.376;2022-11-20T02:57:11;2.97;;;1.60;;
6029;SDS011;3043;42.682;23.376;2022-11-20T02:59:36;4.73;;;1.97;;
6029;SDS011;3043;42.682;23.376;2022-11-20T03:02:02;5.10;;;2.10;;
6029;SDS011;3043;42.682;23.376;2022-11-20T03:04:27;4.77;;;1.83;;
6029;SDS011;3043;42.682;23.376;2022-11-20T03:06:53;6.73;;;2.00;;
6029;SDS011;3043;42.682;23.376;2022-11-20T03:09:18;5.20;;;2.00;;
6029;SDS011;3043;42.682;23.376;2022-11-20T03:11:43;6.23;;;2.03;;
6029;SDS011;3043;42.682;23.376;2022-11-20T03:14:09;11.70;;;6.90;;
6029;SDS011;3043;42.682;23.376;2022-11-20T03:16:34;6.67;;;2.10;;
6029;SDS011;3043;42.682;23.376;2022-11-20T03:19:00;4.60;;;2.00;;
6029;SDS011;3043;42.682;23.376;2022-11-20T03:21:25;3.47;;;1.70;;
6029;SDS011;3043;42.682;23.376;2022-11-20T03:23:52;2.60;;;1.70;;
6029;SDS011;3043;42.682;23.376;2022-11-20T03:26:20;4.33;;;2.00;;
6029;SDS011;3043;42.682;23.376;2022-11-20T03:28:57;3.93;;;1.80;;
6029;SDS011;3043;42.682;23.376;2022-11-20T03:31:24;7.83;;;2.20;;
6029;SDS011;3043;42.682;23.376;2022-11-20T03:33:52;3.70;;;1.73;;
6029;SDS011;3043;42.682;23.376;2022-11-20T03:36:18;3.50;;;1.80;;
6029;SDS011;3043;42.682;23.376;2022-11-20T03:38:44;3.20;;;1.90;;
6029;SDS011;3043;42.682;23.376;2022-11-20T03:41:12;7.63;;;2.10;;
6029;SDS011;3043;42.682;23.376;2022-11-20T03:43:39;5.50;;;2.57;;
6029;SDS011;3043;42.682;23.376;2022-11-20T03:46:05;5.00;;;1.90;;
6029;SDS011;3043;42.682;23.376;2022-11-20T03:48:32;3.30;;;1.60;;
6029;SDS011;3043;42.682;23.376;2022-11-20T03:51:11;4.27;;;1.73;;
6029;SDS011;3043;42.682;23.376;2022-11-20T03:53:39;3.00;;;1.90;;
6029;SDS011;3043;42.682;23.376;2022-11-20T03:56:05;4.10;;;1.80;;
6029;SDS011;3043;42.682;23.376;2022-11-20T03:58:32;2.97;;;1.83;;
6029;SDS011;3043;42.682;23.376;2022-11-20T04:01:03;4.33;;;1.73;;
6029;SDS011;3043;42.682;23.376;2022-11-20T04:03:30;5.53;;;1.83;;
6029;SDS011;3043;42.682;23.376;2022-11-20T04:05:55;4.13;;;1.70;;
6029;SDS011;3043;42.682;23.376;2022-11-20T04:08:28;2.83;;;1.67;;
6029;SDS011;3043;42.682;23.376;2022-11-20T04:10:53;2.93;;;1.50;;
6029;SDS011;3043;42.682;23.376;2022-11-20T04:13:19;4.60;;;1.80;;
6029;SDS011;3043;42.682;23.376;2022-11-20T04:15:44;4.33;;;1.70;;
6029;SDS011;3043;42.682;23.376;2022-11-20T04:18:09;3.93;;;1.80;;
6029;SDS011;3043;42.682;23.376;2022-11-20T04:20:35;4.10;;;2.00;;
6029;SDS011;3043;42.682;23.376;2022-11-20T04:23:00;2.53;;;1.80;;
6029;SDS011;3043;42.682;23.376;2022-11-20T04:25:26;6.00;;;1.80;;
6029;SDS011;3043;42.682;23.376;2022-11-20T04:27:51;4.90;;;1.83;;
6029;SDS011;3043;42.682;23.376;2022-11-20T04:30:16;5.53;;;1.70;;
6029;SDS011;3043;42.682;23.376;2022-11-20T04:32:42;6.63;;;2.93;;
6029;SDS011;3043;42.682;23.376;2022-11-20T04:35:07;2.67;;;1.70;;
6029;SDS011;3043;42.682;23.376;2022-11-20T04:37:33;4.07;;;1.70;;
6029;SDS011;3043;42.682;23.376;2022-11-20T04:39:58;4.03;;;1.80;;
6029;SDS011;3043;42.682;23.376;2022-11-20T04:42:24;4.13;;;1.93;;
6029;SDS011;3043;42.682;23.376;2022-11-20T04:44:56;4.67;;;1.80;;
6029;SDS011;3043;42.682;23.376;2022-11-20T04:47:22;2.87;;;1.50;;
6029;SDS011;3043;42.682;23.376;2022-11-20T04:49:47;4.77;;;1.63;;
6029;SDS011;3043;42.682;23.376;2022-11-20T04:52:13;4.20;;;1.87;;
6029;SDS011;3043;42.682;23.376;2022-11-20T04:54:38;3.20;;;1.60;;
6029;SDS011;3043;42.682;23.376;2022-11-20T04:57:04;4.60;;;2.00;;
6029;SDS011;3043;42.682;23.376;2022-11-20T04:59:29;5.07;;;2.00;;
6029;SDS011;3043;42.682;23.376;2022-11-20T05:01:55;3.17;;;1.70;;
6029;SDS011;3043;42.682;23.376;2022-11-20T05:04:20;6.10;;;2.50;;
6029;SDS011;3043;42.682;23.376;2022-11-20T05:06:46;5.27;;;2.20;;
6029;SDS011;3043;42.682;23.376;2022-11-20T05:09:12;7.53;;;2.30;;
6029;SDS011;3043;42.682;23.376;2022-11-20T05:11:38;3.60;;;1.90;;
6029;SDS011;3043;42.682;23.376;2022-11-20T05:14:03;2.77;;;1.63;;
6029;SDS011;3043;42.682;23.376;2022-11-20T05:16:28;2.80;;;1.50;;
6029;SDS011;3043;42.682;23.376;2022-11-20T05:18:54;3.67;;;1.60;;
6029;SDS011;3043;42.682;23.376;2022-11-20T05:21:20;5.20;;;1.70;;
6029;SDS011;3043;42.682;23.376;2022-11-20T05:23:46;5.40;;;2.00;;
6029;SDS011;3043;42.682;23.376;2022-11-20T05:26:16;2.47;;;1.80;;
6029;SDS011;3043;42.682;23.376;2022-11-20T05:28:43;3.27;;;1.80;;
6029;SDS011;3043;42.682;23.376;2022-11-20T05:31:10;2.57;;;1.60;;
6029;SDS011;3043;42.682;23.376;2022-11-20T05:33:39;7.47;;;2.13;;
6029;SDS011;3043;42.682;23.376;2022-11-20T05:36:05;6.87;;;2.13;;
6029;SDS011;3043;42.682;23.376;2022-11-20T05:38:32;3.13;;;1.70;;
6029;SDS011;3043;42.682;23.376;2022-11-20T05:41:10;4.57;;;2.10;;
6029;SDS011;3043;42.682;23.376;2022-11-20T05:43:40;3.73;;;1.90;;
6029;SDS011;3043;42.682;23.376;2022-11-20T05:46:08;4.03;;;1.93;;
6029;SDS011;3043;42.682;23.376;2022-11-20T05:48:35;7.33;;;2.30;;
6029;SDS011;3043;42.682;23.376;2022-11-20T05:51:03;4.80;;;2.27;;
6029;SDS011;3043;42.682;23.376;2022-11-20T05:53:30;4.40;;;1.90;;
6029;SDS011;3043;42.682;23.376;2022-11-20T05:56:00;6.10;;;2.20;;
6029;SDS011;3043;42.682;23.376;2022-11-20T05:58:28;5.30;;;2.00;;
6029;SDS011;3043;42.682;23.376;2022-11-20T06:00:54;3.97;;;2.07;;
6029;SDS011;3043;42.682;23.376;2022-11-20T06:03:20;4.97;;;1.70;;
6029;SDS011;3043;42.682;23.376;2022-11-20T06:05:45;4.07;;;1.87;;
6029;SDS011;3043;42.682;23.376;2022-11-20T06:08:11;3.97;;;1.83;;
6029;SDS011;3043;42.682;23.376;2022-11-20T06:10:36;5.03;;;1.60;;
6029;SDS011;3043;42.682;23.376;2022-11-20T06:13:02;3.17;;;1.77;;
6029;SDS011;3043;42.682;23.376;2022-11-20T06:15:27;5.40;;;1.97;;
6029;SDS011;3043;42.682;23.376;2022-11-20T06:17:53;6.00;;;2.20;;
6029;SDS011;3043;42.682;23.376;2022-11-20T06:20:19;5.10;;;1.80;;
6029;SDS011;3043;42.682;23.376;2022-11-20T06:22:45;5.20;;;1.80;;
6029;SDS011;3043;42.682;23.376;2022-11-20T06:25:11;4.63;;;2.23;;
6029;SDS011;3043;42.682;23.376;2022-11-20T06:27:36;5.43;;;2.03;;
6029;SDS011;3043;42.682;23.376;2022-11-20T06:30:02;5.67;;;1.83;;
6029;SDS011;3043;42.682;23.376;2022-11-20T06:32:28;5.00;;;2.07;;
6029;SDS011;3043;42.682;23.376;2022-11-20T06:34:54;5.20;;;1.90;;
6029;SDS011;3043;42.682;23.376;2022-11-20T06:37:19;4.90;;;1.90;;
6029;SDS011;3043;42.682;23.376;2022-11-20T06:39:45;4.27;;;1.70;;
6029;SDS011;3043;42.682;23.376;2022-11-20T06:42:10;4.80;;;2.00;;
6029;SDS011;3043;42.682;23.376;2022-11-20T06:44:35;3.87;;;1.70;;
6029;SDS011;3043;42.682;23.376;2022-11-20T06:47:01;4.93;;;2.03;;
6029;SDS011;3043;42.682;23.376;2022-11-20T06:49:26;3.43;;;1.70;;
6029;SDS011;3043;42.682;23.376;2022-11-20T06:51:52;6.37;;;2.23;;
6029;SDS011;3043;42.682;23.376;2022-11-20T06:54:17;4.67;;;2.23;;
6029;SDS011;3043;42.682;23.376;2022-11-20T06:56:46;5.03;;;2.40;;
6029;SDS011;3043;42.682;23.376;2022-11-20T06:59:12;3.30;;;1.80;;
6029;SDS011;3043;42.682;23.376;2022-11-20T07:01:38;4.73;;;2.00;;
6029;SDS011;3043;42.682;23.376;2022-11-20T07:04:03;3.50;;;1.63;;
6029;SDS011;3043;42.682;23.376;2022-11-20T07:06:29;4.87;;;1.90;;
6029;SDS011;3043;42.682;23.376;2022-11-20T07:08:54;4.33;;;2.03;;
6029;SDS011;3043;42.682;23.376;2022-11-20T07:11:19;5.40;;;1.70;;
6029;SDS011;3043;42.682;23.376;2022-11-20T07:13:45;4.83;;;2.00;;
6029;SDS011;3043;42.682;23.376;2022-11-20T07:16:10;4.50;;;1.73;;
6029;SDS011;3043;42.682;23.376;2022-11-20T07:18:36;4.73;;;1.90;;
6029;SDS011;3043;42.682;23.376;2022-11-20T07:21:05;3.07;;;1.77;;
6029;SDS011;3043;42.682;23.376;2022-11-20T07:23:32;5.83;;;2.00;;
6029;SDS011;3043;42.682;23.376;2022-11-20T07:25:58;4.33;;;1.77;;
6029;SDS011;3043;42.682;23.376;2022-11-20T07:28:27;7.80;;;2.90;;
6029;SDS011;3043;42.682;23.376;2022-11-20T07:30:52;4.67;;;2.03;;
6029;SDS011;3043;42.682;23.376;2022-11-20T07:33:18;4.73;;;1.80;;
6029;SDS011;3043;42.682;23.376;2022-11-20T07:35:44;6.20;;;2.17;;
6029;SDS011;3043;42.682;23.376;2022-11-20T07:38:10;4.23;;;1.60;;
6029;SDS011;3043;42.682;23.376;2022-11-20T07:40:35;3.33;;;1.73;;
6029;SDS011;3043;42.682;23.376;2022-11-20T07:43:01;4.63;;;1.90;;
6029;SDS011;3043;42.682;23.376;2022-11-20T07:45:26;7.60;;;2.30;;
6029;SDS011;3043;42.682;23.376;2022-11-20T07:47:51;6.03;;;1.70;;
6029;SDS011;3043;42.682;23.376;2022-11-20T07:50:17;4.93;;;2.07;;
6029;SDS011;3043;42.682;23.376;2022-11-20T07:52:44;3.77;;;2.00;;
6029;SDS011;3043;42.682;23.376;2022-11-20T07:55:09;7.87;;;2.67;;
6029;SDS011;3043;42.682;23.376;2022-11-20T07:57:35;5.07;;;1.80;;
6029;SDS011;3043;42.682;23.376;2022-11-20T08:00:02;4.23;;;1.93;;
6029;SDS011;3043;42.682;23.376;2022-11-20T08:02:29;5.40;;;1.87;;
6029;SDS011;3043;42.682;23.376;2022-11-20T08:04:54;9.60;;;3.20;;
6029;SDS011;3043;42.682;23.376;2022-11-20T08:07:20;4.63;;;2.40;;
6029;SDS011;3043;42.682;23.376;2022-11-20T08:09:45;5.73;;;2.03;;
6029;SDS011;3043;42.682;23.376;2022-11-20T08:12:20;6.07;;;2.13;;
6029;SDS011;3043;42.682;23.376;2022-11-20T08:15:05;6.17;;;2.27;;
6029;SDS011;3043;42.682;23.376;2022-11-20T08:17:31;7.87;;;2.33;;
6029;SDS011;3043;42.682;23.376;2022-11-20T08:19:56;5.63;;;2.20;;
6029;SDS011;3043;42.682;23.376;2022-11-20T08:22:22;5.57;;;1.90;;
6029;SDS011;3043;42.682;23.376;2022-11-20T08:24:47;5.40;;;2.10;;
6029;SDS011;3043;42.682;23.376;2022-11-20T08:27:13;6.00;;;2.47;;
6029;SDS011;3043;42.682;23.376;2022-11-20T08:29:39;5.43;;;2.53;;
6029;SDS011;3043;42.682;23.376;2022-11-20T08:32:04;8.63;;;2.23;;
6029;SDS011;3043;42.682;23.376;2022-11-20T08:34:30;6.03;;;2.53;;
6029;SDS011;3043;42.682;23.376;2022-11-20T08:36:55;14.23;;;7.50;;
6029;SDS011;3043;42.682;23.376;2022-11-20T08:39:20;9.17;;;3.23;;
6029;SDS011;3043;42.682;23.376;2022-11-20T08:41:46;5.47;;;2.23;;
6029;SDS011;3043;42.682;23.376;2022-11-20T08:44:11;7.40;;;2.60;;
6029;SDS011;3043;42.682;23.376;2022-11-20T08:46:37;12.97;;;3.53;;
6029;SDS011;3043;42.682;23.376;2022-11-20T08:49:06;7.73;;;3.10;;
6029;SDS011;3043;42.682;23.376;2022-11-20T08:51:33;14.20;;;6.40;;
6029;SDS011;3043;42.682;23.376;2022-11-20T08:53:58;10.30;;;4.33;;
6029;SDS011;3043;42.682;23.376;2022-11-20T08:56:24;9.33;;;3.77;;
6029;SDS011;3043;42.682;23.376;2022-11-20T08:58:50;12.53;;;3.70;;
6029;SDS011;3043;42.682;23.376;2022-11-20T09:01:17;9.13;;;4.60;;
6029;SDS011;3043;42.682;23.376;2022-11-20T09:03:43;9.47;;;4.00;;
6029;SDS011;3043;42.682;23.376;2022-11-20T09:06:09;9.13;;;3.60;;
6029;SDS011;3043;42.682;23.376;2022-11-20T09:08:34;7.47;;;3.30;;
6029;SDS011;3043;42.682;23.376;2022-11-20T09:11:01;6.10;;;2.60;;
6029;SDS011;3043;42.682;23.376;2022-11-20T09:13:27;12.53;;;3.30;;
6029;SDS011;3043;42.682;23.376;2022-11-20T09:15:54;11.93;;;6.20;;
6029;SDS011;3043;42.682;23.376;2022-11-20T09:18:23;10.77;;;3.20;;
6029;SDS011;3043;42.682;23.376;2022-11-20T09:20:49;6.97;;;2.70;;
6029;SDS011;3043;42.682;23.376;2022-11-20T09:23:15;8.30;;;3.10;;
6029;SDS011;3043;42.682;23.376;2022-11-20T09:25:41;4.50;;;2.53;;
6029;SDS011;3043;42.682;23.376;2022-11-20T09:28:07;9.87;;;3.70;;
6029;SDS011;3043;42.682;23.376;2022-11-20T09:30:33;6.37;;;2.60;;
6029;SDS011;3043;42.682;23.376;2022-11-20T09:32:58;5.33;;;2.50;;
6029;SDS011;3043;42.682;23.376;2022-11-20T09:35:24;5.30;;;2.70;;
6029;SDS011;3043;42.682;23.376;2022-11-20T09:37:49;6.87;;;3.10;;
6029;SDS011;3043;42.682;23.376;2022-11-20T09:51:16;4.20;;;2.10;;
6029;SDS011;3043;42.682;23.376;2022-11-20T09:56:19;4.93;;;2.17;;
6029;SDS011;3043;42.682;23.376;2022-11-20T09:58:47;4.63;;;2.10;;
6029;SDS011;3043;42.682;23.376;2022-11-20T10:01:19;6.93;;;2.30;;
6029;SDS011;3043;42.682;23.376;2022-11-20T10:06:18;3.60;;;2.00;;
6029;SDS011;3043;42.682;23.376;2022-11-20T10:25:19;10.23;;;4.60;;
6029;SDS011;3043;42.682;23.376;2022-11-20T10:30:29;11.50;;;4.50;;
6029;SDS011;3043;42.682;23.376;2022-11-20T10:33:00;12.73;;;6.03;;
6029;SDS011;3043;42.682;23.376;2022-11-20T10:38:00;11.17;;;5.30;;
6029;SDS011;3043;42.682;23.376;2022-11-20T10:43:00;13.10;;;5.17;;
6029;SDS011;3043;42.682;23.376;2022-11-20T10:46:12;10.67;;;5.10;;
6029;SDS011;3043;42.682;23.376;2022-11-20T10:48:23;12.00;;;5.20;;
6029;SDS011;3043;42.682;23.376;2022-11-20T10:56:40;11.10;;;4.73;;
6029;SDS011;3043;42.682;23.376;2022-11-20T10:59:14;9.70;;;4.17;;
6029;SDS011;3043;42.682;23.376;2022-11-20T11:02:14;11.87;;;4.27;;
6029;SDS011;3043;42.682;23.376;2022-11-20T11:04:51;11.47;;;5.47;;
6029;SDS011;3043;42.682;23.376;2022-11-20T11:07:24;9.77;;;4.73;;
6029;SDS011;3043;42.682;23.376;2022-11-20T11:09:55;10.43;;;5.53;;
6029;SDS011;3043;42.682;23.376;2022-11-20T11:12:23;13.00;;;6.40;;
6029;SDS011;3043;42.682;23.376;2022-11-20T11:14:51;13.60;;;6.67;;
6029;SDS011;3043;42.682;23.376;2022-11-20T11:17:20;11.20;;;5.27;;
6029;SDS011;3043;42.682;23.376;2022-11-20T11:22:44;9.47;;;4.00;;
6029;SDS011;3043;42.682;23.376;2022-11-20T11:27:48;3.97;;;1.63;;
6029;SDS011;3043;42.682;23.376;2022-11-20T11:30:15;4.77;;;2.00;;
6029;SDS011;3043;42.682;23.376;2022-11-20T11:32:42;4.57;;;1.87;;
6029;SDS011;3043;42.682;23.376;2022-11-20T11:37:47;2.97;;;1.63;;
6029;SDS011;3043;42.682;23.376;2022-11-20T11:40:13;3.97;;;1.60;;
6029;SDS011;3043;42.682;23.376;2022-11-20T11:42:42;2.77;;;1.50;;
6029;SDS011;3043;42.682;23.376;2022-11-20T11:45:14;4.27;;;1.57;;
6029;SDS011;3043;42.682;23.376;2022-11-20T11:53:01;2.87;;;1.70;;
6029;SDS011;3043;42.682;23.376;2022-11-20T11:58:29;3.30;;;1.50;;
6029;SDS011;3043;42.682;23.376;2022-11-20T12:04:54;3.20;;;1.60;;
6029;SDS011;3043;42.682;23.376;2022-11-20T12:07:08;9.00;;;1.83;;
6029;SDS011;3043;42.682;23.376;2022-11-20T12:09:54;3.67;;;1.70;;
6029;SDS011;3043;42.682;23.376;2022-11-20T12:12:44;3.47;;;1.67;;
6029;SDS011;3043;42.682;23.376;2022-11-20T12:15:11;5.00;;;2.00;;
6029;SDS011;3043;42.682;23.376;2022-11-20T12:17:41;4.80;;;1.73;;
6029;SDS011;3043;42.682;23.376;2022-11-20T12:20:15;4.80;;;1.60;;
6029;SDS011;3043;42.682;23.376;2022-11-20T12:22:43;4.23;;;1.73;;
6029;SDS011;3043;42.682;23.376;2022-11-20T12:25:28;2.17;;;1.70;;
6029;SDS011;3043;42.682;23.376;2022-11-20T12:28:09;4.23;;;2.17;;
6029;SDS011;3043;42.682;23.376;2022-11-20T12:34:02;3.33;;;1.67;;
6029;SDS011;3043;42.682;23.376;2022-11-20T12:36:44;3.97;;;1.50;;
6029;SDS011;3043;42.682;23.376;2022-11-20T12:39:41;2.33;;;1.30;;
6029;SDS011;3043;42.682;23.376;2022-11-20T12:42:28;2.80;;;1.40;;
6029;SDS011;3043;42.682;23.376;2022-11-20T13:01:45;9.53;;;3.60;;
6029;SDS011;3043;42.682;23.376;2022-11-20T13:07:07;11.93;;;6.57;;
6029;SDS011;3043;42.682;23.376;2022-11-20T13:09:39;8.67;;;4.60;;
6029;SDS011;3043;42.682;23.376;2022-11-20T13:14:40;12.57;;;6.60;;
6029;SDS011;3043;42.682;23.376;2022-11-20T13:17:17;16.83;;;8.60;;
6029;SDS011;3043;42.682;23.376;2022-11-20T13:19:48;17.00;;;8.20;;
6029;SDS011;3043;42.682;23.376;2022-11-20T13:22:29;9.37;;;4.10;;
6029;SDS011;3043;42.682;23.376;2022-11-20T13:25:09;7.03;;;3.80;;
6029;SDS011;3043;42.682;23.376;2022-11-20T13:27:35;10.83;;;5.10;;
6029;SDS011;3043;42.682;23.376;2022-11-20T13:32:47;8.27;;;3.60;;
6029;SDS011;3043;42.682;23.376;2022-11-20T13:35:29;10.17;;;3.90;;
6029;SDS011;3043;42.682;23.376;2022-11-20T13:38:02;6.07;;;2.53;;
6029;SDS011;3043;42.682;23.376;2022-11-20T13:40:34;6.53;;;2.63;;
6029;SDS011;3043;42.682;23.376;2022-11-20T13:43:04;5.83;;;3.07;;
6029;SDS011;3043;42.682;23.376;2022-11-20T13:45:41;7.53;;;3.17;;
6029;SDS011;3043;42.682;23.376;2022-11-20T13:48:19;7.67;;;3.63;;
6029;SDS011;3043;42.682;23.376;2022-11-20T14:01:53;12.10;;;7.17;;
6029;SDS011;3043;42.682;23.376;2022-11-20T14:04:21;11.77;;;5.53;;
6029;SDS011;3043;42.682;23.376;2022-11-20T14:06:53;10.13;;;5.57;;
6029;SDS011;3043;42.682;23.376;2022-11-20T14:09:27;11.37;;;7.20;;
6029;SDS011;3043;42.682;23.376;2022-11-20T14:11:54;14.50;;;8.60;;
6029;SDS011;3043;42.682;23.376;2022-11-20T14:14:20;12.33;;;7.33;;
6029;SDS011;3043;42.682;23.376;2022-11-20T14:16:47;18.90;;;11.70;;
6029;SDS011;3043;42.682;23.376;2022-11-20T14:21:45;12.73;;;7.37;;
6029;SDS011;3043;42.682;23.376;2022-11-20T14:24:12;13.10;;;7.03;;
6029;SDS011;3043;42.682;23.376;2022-11-20T14:26:45;8.97;;;4.40;;
6029;SDS011;3043;42.682;23.376;2022-11-20T14:29:14;10.37;;;5.27;;
6029;SDS011;3043;42.682;23.376;2022-11-20T14:31:42;10.20;;;5.03;;
6029;SDS011;3043;42.682;23.376;2022-11-20T14:34:14;12.53;;;6.80;;
6029;SDS011;3043;42.682;23.376;2022-11-20T14:36:43;9.60;;;4.57;;
6029;SDS011;3043;42.682;23.376;2022-11-20T14:39:10;10.63;;;5.03;;
6029;SDS011;3043;42.682;23.376;2022-11-20T14:41:37;11.73;;;6.00;;
6029;SDS011;3043;42.682;23.376;2022-11-20T14:44:02;10.80;;;6.30;;
6029;SDS011;3043;42.682;23.376;2022-11-20T14:46:29;10.10;;;4.93;;
6029;SDS011;3043;42.682;23.376;2022-11-20T14:48:56;12.37;;;5.90;;
6029;SDS011;3043;42.682;23.376;2022-11-20T14:51:32;10.77;;;5.37;;
6029;SDS011;3043;42.682;23.376;2022-11-20T14:54:15;8.47;;;5.00;;
6029;SDS011;3043;42.682;23.376;2022-11-20T14:56:42;11.90;;;6.23;;
6029;SDS011;3043;42.682;23.376;2022-11-20T14:59:22;9.30;;;5.40;;
6029;SDS011;3043;42.682;23.376;2022-11-20T15:02:00;13.87;;;6.53;;
6029;SDS011;3043;42.682;23.376;2022-11-20T15:04:29;13.93;;;7.90;;
6029;SDS011;3043;42.682;23.376;2022-11-20T15:06:55;13.30;;;7.30;;
6029;SDS011;3043;42.682;23.376;2022-11-20T15:09:22;12.93;;;8.23;;
6029;SDS011;3043;42.682;23.376;2022-11-20T15:11:55;16.03;;;8.57;;
6029;SDS011;3043;42.682;23.376;2022-11-20T15:14:23;20.63;;;12.93;;
6029;SDS011;3043;42.682;23.376;2022-11-20T15:16:50;14.67;;;8.83;;
6029;SDS011;3043;42.682;23.376;2022-11-20T15:19:18;15.23;;;7.83;;
6029;SDS011;3043;42.682;23.376;2022-11-20T15:21:46;12.47;;;6.40;;
6029;SDS011;3043;42.682;23.376;2022-11-20T15:24:12;11.33;;;5.83;;
6029;SDS011;3043;42.682;23.376;2022-11-20T15:26:37;12.30;;;6.97;;
6029;SDS011;3043;42.682;23.376;2022-11-20T15:29:13;9.60;;;4.67;;
6029;SDS011;3043;42.682;23.376;2022-11-20T15:31:43;14.47;;;5.43;;
6029;SDS011;3043;42.682;23.376;2022-11-20T15:34:13;10.23;;;4.67;;
6029;SDS011;3043;42.682;23.376;2022-11-20T15:36:40;8.40;;;3.93;;
6029;SDS011;3043;42.682;23.376;2022-11-20T15:39:06;8.70;;;4.37;;
6029;SDS011;3043;42.682;23.376;2022-11-20T15:41:32;7.13;;;3.97;;
6029;SDS011;3043;42.682;23.376;2022-11-20T15:44:01;10.93;;;4.67;;
6029;SDS011;3043;42.682;23.376;2022-11-20T15:46:29;7.43;;;4.00;;
6029;SDS011;3043;42.682;23.376;2022-11-20T15:49:02;7.33;;;3.70;;
6029;SDS011;3043;42.682;23.376;2022-11-20T15:51:35;6.63;;;3.20;;
6029;SDS011;3043;42.682;23.376;2022-11-20T15:54:09;10.20;;;4.07;;
6029;SDS011;3043;42.682;23.376;2022-11-20T15:56:36;9.37;;;3.70;;
6029;SDS011;3043;42.682;23.376;2022-11-20T15:59:02;6.60;;;2.60;;
6029;SDS011;3043;42.682;23.376;2022-11-20T16:01:27;5.90;;;3.00;;
6029;SDS011;3043;42.682;23.376;2022-11-20T16:03:53;6.33;;;2.80;;
6029;SDS011;3043;42.682;23.376;2022-11-20T16:06:18;5.20;;;2.67;;
6029;SDS011;3043;42.682;23.376;2022-11-20T16:08:44;6.10;;;2.90;;
6029;SDS011;3043;42.682;23.376;2022-11-20T16:11:13;6.50;;;3.00;;
6029;SDS011;3043;42.682;23.376;2022-11-20T16:13:40;8.23;;;3.17;;
6029;SDS011;3043;42.682;23.376;2022-11-20T16:16:31;7.03;;;3.30;;
6029;SDS011;3043;42.682;23.376;2022-11-20T16:18:59;7.53;;;3.43;;
6029;SDS011;3043;42.682;23.376;2022-11-20T16:21:25;7.37;;;3.30;;
6029;SDS011;3043;42.682;23.376;2022-11-20T16:26:25;8.93;;;5.30;;
6029;SDS011;3043;42.682;23.376;2022-11-20T16:28:50;11.53;;;5.70;;
6029;SDS011;3043;42.682;23.376;2022-11-20T16:31:16;9.03;;;4.70;;
6029;SDS011;3043;42.682;23.376;2022-11-20T16:33:48;10.20;;;5.80;;
6029;SDS011;3043;42.682;23.376;2022-11-20T16:36:15;10.17;;;5.67;;
6029;SDS011;3043;42.682;23.376;2022-11-20T16:38:41;12.00;;;5.30;;
6029;SDS011;3043;42.682;23.376;2022-11-20T16:41:06;10.77;;;5.67;;
6029;SDS011;3043;42.682;23.376;2022-11-20T16:43:59;9.90;;;4.73;;
6029;SDS011;3043;42.682;23.376;2022-11-20T16:46:28;10.30;;;5.03;;
6029;SDS011;3043;42.682;23.376;2022-11-20T16:48:56;9.53;;;5.00;;
6029;SDS011;3043;42.682;23.376;2022-11-20T16:51:23;11.90;;;4.83;;
6029;SDS011;3043;42.682;23.376;2022-11-20T16:53:49;10.43;;;5.57;;
6029;SDS011;3043;42.682;23.376;2022-11-20T16:56:19;10.90;;;5.87;;
6029;SDS011;3043;42.682;23.376;2022-11-20T16:58:46;9.83;;;5.27;;
6029;SDS011;3043;42.682;23.376;2022-11-20T17:01:14;7.53;;;4.10;;
6029;SDS011;3043;42.682;23.376;2022-11-20T17:03:42;13.43;;;8.87;;
6029;SDS011;3043;42.682;23.376;2022-11-20T17:06:10;10.23;;;5.10;;